Time;durP1;ratioP1;P1;durP2;ratioP2;P2;SDS_P1;SDS_P2;PMS_P1;PMS_P2;Temp;Humidity;BMP_temperature;BMP_pressure;BME280_temperature;BME280_humidity;BME280_pressure;Samples;Min_cycle;Max_cycle;Signal;HPM_P1;HPM_P2
2021/07/14 00:02:12;;;;;;;10.82;7.07;;;;;24.80;101025.00;;;;5087242;28;20585;-77
2021/07/14 00:04:40;;;;;;;12.13;7.65;;;;;24.80;101021.00;;;;5076532;28;20199;-77
2021/07/14 00:07:07;;;;;;;9.52;7.13;;;;;24.80;101009.00;;;;5069439;28;20191;-77
2021/07/14 00:09:35;;;;;;;12.82;7.38;;;;;24.80;101009.00;;;;5070680;28;20230;-77
2021/07/14 00:12:05;;;;;;;9.48;7.32;;;;;24.80;101014.00;;;;5073929;28;20218;-77
2021/07/14 00:17:23;;;;;;;10.65;7.45;;;;;24.70;101012.00;;;;5068706;28;20191;-78
2021/07/14 00:22:38;;;;;;;14.13;6.35;;;;;24.70;101002.00;;;;5069037;28;20234;-77
2021/07/14 00:25:08;;;;;;;9.65;6.32;;;;;24.70;101006.00;;;;5069250;28;20203;-77
2021/07/14 00:27:39;;;;;;;10.52;7.30;;;;;24.70;101003.00;;;;5073341;28;20203;-77
2021/07/14 00:30:12;;;;;;;11.65;7.60;;;;;24.60;101005.00;;;;5068732;28;20199;-77
2021/07/14 00:32:39;;;;;;;11.07;7.43;;;;;24.60;101000.00;;;;5069038;28;20575;-78
2021/07/14 00:35:08;;;;;;;10.35;6.82;;;;;24.60;101006.00;;;;5069376;28;20245;-78
2021/07/14 00:37:35;;;;;;;8.85;6.55;;;;;24.60;101004.00;;;;5069241;28;20199;-77
2021/07/14 00:40:06;;;;;;;10.52;7.30;;;;;24.60;100990.00;;;;5069722;28;20244;-77
2021/07/14 00:42:33;;;;;;;11.50;7.45;;;;;24.60;100981.00;;;;5077528;28;20653;-77
2021/07/14 00:45:00;;;;;;;11.18;6.80;;;;;24.60;100985.00;;;;5074112;28;20198;-77
2021/07/14 00:47:32;;;;;;;12.25;7.55;;;;;24.60;100981.00;;;;5073407;28;20568;-77
2021/07/14 00:50:00;;;;;;;12.70;8.07;;;;;24.60;100977.00;;;;5088639;28;20210;-78
2021/07/14 00:52:28;;;;;;;8.85;6.85;;;;;24.60;100972.00;;;;5088633;28;21049;-77
2021/07/14 00:54:56;;;;;;;9.35;6.65;;;;;24.60;100980.00;;;;5075304;28;20206;-78
2021/07/14 00:57:26;;;;;;;10.57;6.45;;;;;24.60;100985.00;;;;5068761;28;20723;-77
2021/07/14 00:59:53;;;;;;;15.25;6.82;;;;;24.60;100985.00;;;;5077435;28;20203;-78
2021/07/14 01:02:21;;;;;;;12.75;7.20;;;;;24.50;100995.00;;;;5070270;28;20195;-78
2021/07/14 01:04:57;;;;;;;9.75;7.03;;;;;24.50;100994.00;;;;5069856;28;20202;-78
2021/07/14 01:07:26;;;;;;;9.48;7.05;;;;;24.50;100998.00;;;;5069434;28;20194;-78
2021/07/14 01:09:57;;;;;;;13.30;7.50;;;;;24.40;100999.00;;;;5072305;28;20226;-78
2021/07/14 01:12:30;;;;;;;10.95;6.25;;;;;24.40;101002.00;;;;5068733;28;20249;-77
2021/07/14 01:15:04;;;;;;;16.30;6.70;;;;;24.40;100997.00;;;;5069072;28;20199;-78
2021/07/14 01:17:36;;;;;;;9.70;5.95;;;;;24.40;100996.00;;;;5068830;28;20955;-77
2021/07/14 01:20:22;;;;;;;14.80;6.22;;;;;24.40;101001.00;;;;5068866;28;20736;-77
2021/07/14 01:22:59;;;;;;;9.70;6.75;;;;;24.40;101001.00;;;;5078992;28;20190;-77
2021/07/14 01:25:50;;;;;;;13.15;6.85;;;;;24.30;101011.00;;;;5072830;28;20252;-77
2021/07/14 01:28:19;;;;;;;9.75;6.47;;;;;24.40;101022.00;;;;5053915;28;20214;-79
2021/07/14 01:30:49;;;;;;;8.98;6.53;;;;;24.40;101019.00;;;;5081826;28;20255;-78
2021/07/14 01:33:19;;;;;;;12.40;6.80;;;;;24.40;101019.00;;;;5086444;28;20202;-77
2021/07/14 01:35:49;;;;;;;10.57;6.88;;;;;24.40;101023.00;;;;5068018;28;20237;-77
2021/07/14 01:38:20;;;;;;;13.43;7.90;;;;;24.40;101017.00;;;;5068829;28;20217;-77
2021/07/14 01:40:48;;;;;;;9.82;6.75;;;;;24.40;101008.00;;;;5068939;28;20194;-77
2021/07/14 01:43:17;;;;;;;10.35;6.80;;;;;24.40;101012.00;;;;5068330;28;20222;-77
2021/07/14 01:45:47;;;;;;;9.88;6.45;;;;;24.40;101010.00;;;;5081689;28;20191;-77
2021/07/14 01:48:16;;;;;;;10.77;7.50;;;;;24.40;101006.00;;;;5068159;28;20226;-77
2021/07/14 01:50:47;;;;;;;10.48;7.32;;;;;24.40;101001.00;;;;5070320;28;20588;-77
2021/07/14 01:53:15;;;;;;;13.75;8.38;;;;;24.40;100998.00;;;;5084674;28;20689;-78
2021/07/14 01:55:46;;;;;;;12.43;8.00;;;;;24.40;101001.00;;;;5086857;28;20202;-78
2021/07/14 01:58:14;;;;;;;10.85;7.28;;;;;24.40;100996.00;;;;5082375;28;20290;-77
2021/07/14 02:00:43;;;;;;;10.60;7.32;;;;;24.40;101002.00;;;;5068312;28;20206;-78
2021/07/14 02:03:29;;;;;;;10.15;7.60;;;;;24.40;100994.00;;;;5068229;28;20212;-77
2021/07/14 02:05:59;;;;;;;12.27;8.20;;;;;24.40;100993.00;;;;5067630;28;20199;-78
2021/07/14 02:08:26;;;;;;;12.15;8.00;;;;;24.40;100989.00;;;;5069283;28;20230;-77
2021/07/14 02:10:55;;;;;;;11.85;7.03;;;;;24.40;100992.00;;;;5068753;28;20214;-77
2021/07/14 02:13:23;;;;;;;15.85;7.47;;;;;24.40;100989.00;;;;5071647;28;20194;-78
2021/07/14 02:15:55;;;;;;;11.57;7.78;;;;;24.40;100988.00;;;;5086982;28;20220;-77
2021/07/14 02:18:25;;;;;;;10.25;6.35;;;;;24.40;100986.00;;;;5088306;28;20202;-77
2021/07/14 02:20:55;;;;;;;13.80;6.78;;;;;24.40;100985.00;;;;5086315;28;20253;-77
2021/07/14 02:23:23;;;;;;;12.23;7.03;;;;;24.40;100982.00;;;;5075323;28;20198;-78
2021/07/14 02:25:50;;;;;;;14.15;6.50;;;;;24.40;100980.00;;;;5074517;28;20248;-77
2021/07/14 02:28:17;;;;;;;11.82;7.13;;;;;24.40;100976.00;;;;5074084;28;20330;-78
2021/07/14 02:30:45;;;;;;;8.25;5.82;;;;;24.40;100981.00;;;;5075404;28;20229;-77
2021/07/14 02:33:15;;;;;;;11.27;6.78;;;;;24.40;100975.00;;;;5071671;28;20223;-77
2021/07/14 02:35:44;;;;;;;12.52;6.80;;;;;24.40;100975.00;;;;5072514;28;20276;-78
2021/07/14 02:38:14;;;;;;;11.15;7.30;;;;;24.40;100978.00;;;;5071210;28;20211;-78
2021/07/14 02:40:47;;;;;;;9.32;6.43;;;;;24.40;100980.00;;;;5077856;28;20191;-78
2021/07/14 02:43:15;;;;;;;12.38;6.85;;;;;24.40;100982.00;;;;5074037;28;20252;-78
2021/07/14 02:45:45;;;;;;;11.82;6.68;;;;;24.40;100976.00;;;;5086341;28;20205;-78
2021/07/14 02:48:14;;;;;;;11.30;6.70;;;;;24.40;100972.00;;;;5071430;28;20191;-78
2021/07/14 02:50:43;;;;;;;10.38;6.72;;;;;24.40;100967.00;;;;5072092;28;20682;-78
2021/07/14 02:53:13;;;;;;;7.60;5.57;;;;;24.40;100970.00;;;;5071845;28;20237;-78
2021/07/14 02:55:44;;;;;;;9.23;5.78;;;;;24.40;100968.00;;;;5078381;28;20202;-78
2021/07/14 02:58:13;;;;;;;9.95;6.50;;;;;24.40;100961.00;;;;5071702;28;20195;-78
2021/07/14 03:00:41;;;;;;;11.70;6.70;;;;;24.40;100968.00;;;;5073691;28;20195;-78
2021/07/14 03:03:10;;;;;;;7.57;5.70;;;;;24.40;100970.00;;;;5072441;28;20203;-78
2021/07/14 03:05:39;;;;;;;9.77;6.85;;;;;24.40;100958.00;;;;5071789;28;20210;-78
2021/07/14 03:08:13;;;;;;;9.80;6.22;;;;;24.40;100952.00;;;;5070138;28;20656;-78
2021/07/14 03:10:43;;;;;;;9.25;6.10;;;;;24.40;100958.00;;;;5073926;28;20237;-78
2021/07/14 03:13:10;;;;;;;9.48;5.80;;;;;24.40;100952.00;;;;5070062;28;20199;-78
2021/07/14 03:15:39;;;;;;;6.88;5.43;;;;;24.40;100954.00;;;;5070333;28;20195;-78
2021/07/14 03:18:08;;;;;;;11.30;6.47;;;;;24.40;100954.00;;;;5069990;28;20661;-78
2021/07/14 03:20:38;;;;;;;9.07;6.50;;;;;24.40;100960.00;;;;5069915;28;20628;-78
2021/07/14 03:23:06;;;;;;;7.80;5.63;;;;;24.40;100964.00;;;;5069881;28;20202;-78
2021/07/14 03:25:33;;;;;;;6.90;5.90;;;;;24.40;100966.00;;;;5078982;28;20202;-78
2021/07/14 03:28:02;;;;;;;7.82;5.88;;;;;24.40;100957.00;;;;5088658;28;20209;-79
2021/07/14 03:30:29;;;;;;;12.60;6.68;;;;;24.40;100962.00;;;;5070676;28;20221;-78
2021/07/14 03:32:57;;;;;;;9.90;6.40;;;;;24.50;100961.00;;;;5070590;28;20248;-78
2021/07/14 03:35:24;;;;;;;7.32;5.45;;;;;24.50;100965.00;;;;5069403;28;20234;-77
2021/07/14 03:37:54;;;;;;;8.68;6.07;;;;;24.40;100962.00;;;;5073952;28;20198;-78
2021/07/14 03:40:21;;;;;;;8.07;5.80;;;;;24.50;100961.00;;;;5078515;28;20202;-78
2021/07/14 03:42:51;;;;;;;8.80;5.53;;;;;24.50;100966.00;;;;5078143;28;20199;-78
2021/07/14 03:45:18;;;;;;;8.65;5.82;;;;;24.50;100954.00;;;;5074047;28;20203;-78
2021/07/14 03:47:47;;;;;;;9.02;6.20;;;;;24.50;100952.00;;;;5087028;28;20602;-77
2021/07/14 03:50:15;;;;;;;7.38;5.75;;;;;24.50;100959.00;;;;5081250;28;20241;-78
2021/07/14 03:52:44;;;;;;;5.70;5.18;;;;;24.50;100957.00;;;;5069904;28;20203;-78
2021/07/14 03:55:14;;;;;;;5.85;4.65;;;;;24.50;100952.00;;;;5069679;28;20203;-78
2021/07/14 03:57:43;;;;;;;8.88;4.93;;;;;24.50;100954.00;;;;5068919;28;20233;-78
2021/07/14 04:00:11;;;;;;;6.07;4.20;;;;;24.50;100964.00;;;;5090060;28;20201;-78
2021/07/14 04:02:42;;;;;;;6.18;4.63;;;;;24.50;100968.00;;;;5070529;28;20195;-78
2021/07/14 04:05:09;;;;;;;5.35;4.55;;;;;24.50;100971.00;;;;5072661;28;20190;-78
2021/07/14 04:07:41;;;;;;;5.28;4.57;;;;;24.50;100980.00;;;;5079154;28;20203;-79
2021/07/14 04:10:10;;;;;;;6.50;4.90;;;;;24.50;100970.00;;;;5073348;28;20226;-78
2021/07/14 04:12:39;;;;;;;5.70;4.82;;;;;24.50;100974.00;;;;5080616;28;20214;-78
2021/07/14 04:15:07;;;;;;;7.28;4.57;;;;;24.50;100970.00;;;;5069421;28;20768;-78
2021/07/14 04:17:34;;;;;;;5.45;4.88;;;;;24.50;100967.00;;;;5072439;28;20665;-78
2021/07/14 04:20:02;;;;;;;6.25;4.60;;;;;24.50;100967.00;;;;5087678;28;20202;-78
2021/07/14 04:22:29;;;;;;;4.53;3.97;;;;;24.50;100958.00;;;;5080534;28;20687;-78
2021/07/14 04:24:57;;;;;;;5.80;4.18;;;;;24.50;100949.00;;;;5077135;28;20563;-78
2021/07/14 04:27:24;;;;;;;8.07;4.53;;;;;24.50;100952.00;;;;5068999;28;20195;-78
2021/07/14 04:29:52;;;;;;;5.53;4.00;;;;;24.50;100964.00;;;;5078446;28;20222;-78
2021/07/14 04:32:20;;;;;;;4.55;3.97;;;;;24.50;100956.00;;;;5078004;28;20199;-78
2021/07/14 04:34:47;;;;;;;5.72;4.28;;;;;24.50;100962.00;;;;5070284;28;20227;-78
2021/07/14 04:37:14;;;;;;;4.85;4.35;;;;;24.60;100959.00;;;;5069836;28;20206;-78
2021/07/14 04:39:41;;;;;;;6.88;3.63;;;;;24.60;100955.00;;;;5069494;28;20583;-78
2021/07/14 04:42:09;;;;;;;5.20;4.07;;;;;24.60;100954.00;;;;5069734;28;20199;-79
2021/07/14 04:44:38;;;;;;;6.72;3.92;;;;;24.60;100948.00;;;;5069658;28;20214;-78
2021/07/14 04:47:07;;;;;;;7.50;4.72;;;;;24.50;100945.00;;;;5073087;28;20219;-79
2021/07/14 04:49:34;;;;;;;6.15;4.40;;;;;24.60;100948.00;;;;5069439;28;20249;-78
2021/07/14 04:52:03;;;;;;;5.05;4.28;;;;;24.60;100942.00;;;;5079465;28;20198;-78
2021/07/14 04:54:30;;;;;;;4.20;3.50;;;;;24.60;100953.00;;;;5088749;28;20668;-78
2021/07/14 04:56:57;;;;;;;6.18;4.00;;;;;24.60;100949.00;;;;5085294;28;20194;-79
2021/07/14 04:59:25;;;;;;;5.05;4.00;;;;;24.60;100946.00;;;;5081820;28;20211;-78
2021/07/14 05:01:52;;;;;;;5.90;4.40;;;;;24.60;100945.00;;;;5088664;28;20233;-78
2021/07/14 05:04:21;;;;;;;5.78;3.70;;;;;24.60;100945.00;;;;5085431;28;20194;-78
2021/07/14 05:06:48;;;;;;;5.28;4.22;;;;;24.60;100947.00;;;;5077479;28;20612;-78
2021/07/14 05:09:15;;;;;;;5.80;4.35;;;;;24.60;100949.00;;;;5079585;28;20206;-78
2021/07/14 05:11:43;;;;;;;5.30;4.20;;;;;24.60;100947.00;;;;5085945;28;20565;-79
2021/07/14 05:14:10;;;;;;;8.02;4.57;;;;;24.60;100943.00;;;;5085365;28;20605;-78
2021/07/14 05:16:37;;;;;;;6.18;4.75;;;;;24.60;100945.00;;;;5086914;28;20198;-78
2021/07/14 05:19:05;;;;;;;6.45;4.60;;;;;24.60;100945.00;;;;5081902;28;20223;-80
2021/07/14 05:21:34;;;;;;;4.97;4.25;;;;;24.50;100945.00;;;;5084137;28;20194;-78
2021/07/14 05:24:01;;;;;;;5.47;4.15;;;;;24.60;100947.00;;;;5088623;28;20230;-78
2021/07/14 05:26:28;;;;;;;6.53;3.75;;;;;24.60;100948.00;;;;5087612;28;20210;-79
2021/07/14 05:28:55;;;;;;;6.38;4.47;;;;;24.60;100954.00;;;;5075933;28;20199;-78
2021/07/14 05:31:23;;;;;;;7.05;4.35;;;;;24.60;100964.00;;;;5085354;28;20218;-79
2021/07/14 05:33:50;;;;;;;5.88;4.45;;;;;24.60;100962.00;;;;5084408;28;20281;-78
2021/07/14 05:36:18;;;;;;;7.05;4.93;;;;;24.50;100967.00;;;;5085826;28;20215;-80
2021/07/14 05:38:47;;;;;;;4.90;4.03;;;;;24.50;100971.00;;;;5068474;28;20206;-79
2021/07/14 05:41:14;;;;;;;6.65;4.80;;;;;24.50;100969.00;;;;5068460;28;20237;-77
2021/07/14 05:43:41;;;;;;;5.38;4.25;;;;;24.50;100981.00;;;;5070725;28;20203;-80
2021/07/14 05:46:08;;;;;;;6.82;4.75;;;;;24.60;100977.00;;;;5078111;28;20214;-78
2021/07/14 05:48:36;;;;;;;5.95;4.50;;;;;24.50;100980.00;;;;5068215;28;20253;-78
2021/07/14 05:51:03;;;;;;;6.97;5.60;;;;;24.50;100984.00;;;;5067870;28;20226;-79
2021/07/14 05:53:30;;;;;;;6.28;5.38;;;;;24.60;100983.00;;;;5068203;28;20206;-78
2021/07/14 05:55:59;;;;;;;7.57;5.88;;;;;24.60;100979.00;;;;5068586;28;20191;-78
2021/07/14 05:58:26;;;;;;;6.47;5.70;;;;;24.60;100984.00;;;;5067483;28;20580;-77
2021/07/14 06:00:53;;;;;;;8.65;6.65;;;;;24.60;100976.00;;;;5071005;28;20191;-77
2021/07/14 06:03:20;;;;;;;8.32;6.55;;;;;24.60;100985.00;;;;5071704;28;20218;-81
2021/07/14 06:05:48;;;;;;;9.88;6.07;;;;;24.60;100989.00;;;;5069296;28;20221;-79
2021/07/14 06:08:16;;;;;;;8.60;6.25;;;;;24.60;100989.00;;;;5071624;28;20194;-80
2021/07/14 06:10:43;;;;;;;7.82;6.32;;;;;24.60;100996.00;;;;5091848;28;20234;-80
2021/07/14 06:13:11;;;;;;;9.48;6.68;;;;;24.60;101002.00;;;;5092229;28;20201;-81
2021/07/14 06:15:39;;;;;;;8.25;6.85;;;;;24.60;100997.00;;;;5087214;28;20198;-80
2021/07/14 06:18:06;;;;;;;9.23;6.70;;;;;24.60;101004.00;;;;5079292;28;20691;-80
2021/07/14 06:20:33;;;;;;;9.68;6.95;;;;;24.60;100998.00;;;;5071638;28;20211;-80
2021/07/14 06:23:00;;;;;;;11.73;8.02;;;;;24.60;100998.00;;;;5080970;28;20194;-80
2021/07/14 06:25:28;;;;;;;9.13;6.85;;;;;24.60;100992.00;;;;5073063;28;20203;-81
2021/07/14 06:27:56;;;;;;;8.98;6.82;;;;;24.60;101002.00;;;;5071711;28;20191;-80
2021/07/14 06:30:25;;;;;;;7.85;6.45;;;;;24.60;101001.00;;;;5088852;28;20225;-80
2021/07/14 06:32:52;;;;;;;8.15;6.80;;;;;24.60;101004.00;;;;5086885;28;20711;-80
2021/07/14 06:35:21;;;;;;;8.15;6.53;;;;;24.60;101004.00;;;;5074080;28;20223;-81
2021/07/14 06:37:49;;;;;;;6.97;6.00;;;;;24.60;100998.00;;;;5074675;28;20329;-80
2021/07/14 06:40:17;;;;;;;8.77;5.63;;;;;24.60;101002.00;;;;5076608;28;20207;-80
2021/07/14 06:42:45;;;;;;;9.23;6.75;;;;;24.60;101003.00;;;;5072423;28;20230;-81
2021/07/14 06:45:13;;;;;;;9.63;6.78;;;;;24.60;101014.00;;;;5080687;28;20289;-80
2021/07/14 06:47:42;;;;;;;8.55;6.60;;;;;24.60;101009.00;;;;5085986;28;20230;-80
2021/07/14 06:50:11;;;;;;;9.05;5.80;;;;;24.60;101002.00;;;;5081190;28;20229;-79
2021/07/14 06:52:39;;;;;;;8.15;6.22;;;;;24.70;100998.00;;;;5079958;28;20190;-80
2021/07/14 06:55:08;;;;;;;7.80;6.20;;;;;24.70;101007.00;;;;5079959;28;20204;-81
2021/07/14 06:57:35;;;;;;;9.73;6.28;;;;;24.70;101009.00;;;;5073328;28;20202;-80
2021/07/14 07:00:04;;;;;;;8.20;5.75;;;;;24.70;101014.00;;;;5092992;28;20198;-80
2021/07/14 07:02:31;;;;;;;9.70;6.88;;;;;24.70;101007.00;;;;5081784;28;20217;-81
2021/07/14 07:05:00;;;;;;;9.55;6.40;;;;;24.70;101006.00;;;;5083005;28;20190;-80
2021/07/14 07:07:27;;;;;;;9.85;6.85;;;;;24.70;101008.00;;;;5074797;28;20195;-81
2021/07/14 07:09:54;;;;;;;9.45;7.68;;;;;24.70;101005.00;;;;5081522;28;20194;-80
2021/07/14 07:12:22;;;;;;;12.35;8.25;;;;;24.70;101005.00;;;;5071170;28;20214;-81
2021/07/14 07:14:49;;;;;;;10.40;7.45;;;;;24.70;101004.00;;;;5082897;28;20213;-80
2021/07/14 07:17:17;;;;;;;12.52;7.90;;;;;24.70;101003.00;;;;5072498;28;20206;-80
2021/07/14 07:19:44;;;;;;;12.02;8.02;;;;;24.60;101002.00;;;;5070951;28;20207;-80
2021/07/14 07:22:13;;;;;;;8.77;7.18;;;;;24.60;100996.00;;;;5075014;28;20578;-80
2021/07/14 07:24:40;;;;;;;13.15;8.82;;;;;24.60;101004.00;;;;5081034;28;20577;-80
2021/07/14 07:27:08;;;;;;;11.85;8.18;;;;;24.60;101003.00;;;;5086153;28;20206;-80
2021/07/14 07:29:36;;;;;;;12.30;7.97;;;;;24.60;100997.00;;;;5092119;28;20248;-81
2021/07/14 07:32:03;;;;;;;10.60;7.50;;;;;24.60;101003.00;;;;5086524;28;20223;-80
2021/07/14 07:34:31;;;;;;;13.40;8.98;;;;;24.60;101000.00;;;;5081907;28;20198;-81
2021/07/14 07:37:00;;;;;;;13.98;7.43;;;;;24.60;101007.00;;;;5074225;28;20198;-81
2021/07/14 07:39:28;;;;;;;12.90;7.93;;;;;24.60;100999.00;;;;5082379;28;20665;-79
2021/07/14 07:41:59;;;;;;;11.43;8.40;;;;;24.60;101005.00;;;;5077762;28;20203;-81
2021/07/14 07:44:26;;;;;;;10.38;7.18;;;;;24.60;101013.00;;;;5079703;28;20645;-81
2021/07/14 07:46:54;;;;;;;12.95;8.52;;;;;24.50;101007.00;;;;5082245;28;20206;-80
2021/07/14 07:49:21;;;;;;;12.43;8.38;;;;;24.50;101010.00;;;;5079299;28;20190;-81
2021/07/14 07:51:48;;;;;;;12.40;8.38;;;;;24.50;101008.00;;;;5079370;28;20221;-81
2021/07/14 07:54:15;;;;;;;12.38;8.43;;;;;24.50;101002.00;;;;5083075;28;20197;-81
2021/07/14 07:56:44;;;;;;;12.98;7.90;;;;;24.50;101006.00;;;;5091138;28;20201;-79
2021/07/14 07:59:11;;;;;;;14.73;9.85;;;;;24.50;101016.00;;;;5079666;28;20198;-80
2021/07/14 08:01:39;;;;;;;12.93;7.97;;;;;24.50;101013.00;;;;5084724;28;20195;-79
2021/07/14 08:04:07;;;;;;;12.05;8.48;;;;;24.50;101009.00;;;;5072161;28;20199;-79
2021/07/14 08:06:35;;;;;;;14.90;8.80;;;;;24.50;101003.00;;;;5070169;28;20252;-79
2021/07/14 08:09:02;;;;;;;11.77;8.43;;;;;24.50;101014.00;;;;5083484;28;20194;-79
2021/07/14 08:11:29;;;;;;;15.65;9.55;;;;;24.50;101014.00;;;;5079182;28;20237;-80
2021/07/14 08:13:59;;;;;;;11.23;8.20;;;;;24.50;101016.00;;;;5075670;28;20187;-80
2021/07/14 08:16:27;;;;;;;13.20;8.40;;;;;24.50;101009.00;;;;5073355;28;20670;-81
2021/07/14 08:18:55;;;;;;;14.13;9.35;;;;;24.50;101008.00;;;;5074872;28;20198;-80
2021/07/14 08:21:23;;;;;;;10.30;7.95;;;;;24.50;101007.00;;;;5075504;28;20202;-81
2021/07/14 08:23:52;;;;;;;12.20;8.27;;;;;24.50;101005.00;;;;5072845;28;20237;-80
2021/07/14 08:26:20;;;;;;;11.88;7.97;;;;;24.50;100996.00;;;;5077561;28;20719;-81
2021/07/14 08:28:47;;;;;;;11.43;7.95;;;;;24.50;100992.00;;;;5076922;28;20226;-80
2021/07/14 08:31:16;;;;;;;11.68;7.70;;;;;24.50;100999.00;;;;5078420;28;20215;-81
2021/07/14 08:33:43;;;;;;;10.07;8.02;;;;;24.50;100997.00;;;;5070077;28;20209;-81
2021/07/14 08:36:11;;;;;;;9.30;6.80;;;;;24.40;101001.00;;;;5077138;28;20236;-81
2021/07/14 08:38:38;;;;;;;9.05;6.82;;;;;24.50;100997.00;;;;5082598;28;20202;-81
2021/07/14 08:41:07;;;;;;;9.05;6.75;;;;;24.50;101003.00;;;;5073387;28;20213;-80
2021/07/14 08:43:35;;;;;;;8.70;7.45;;;;;24.50;101010.00;;;;5068634;28;20278;-82
2021/07/14 08:46:02;;;;;;;9.38;7.57;;;;;24.50;101009.00;;;;5069638;28;20190;-82
2021/07/14 08:48:33;;;;;;;12.88;7.70;;;;;24.50;101005.00;;;;5080577;28;20199;-80
2021/07/14 08:51:01;;;;;;;7.63;6.55;;;;;24.60;100997.00;;;;5070806;28;20222;-80
2021/07/14 08:53:31;;;;;;;9.25;6.78;;;;;24.60;100992.00;;;;5076823;28;20583;-80
2021/07/14 08:56:01;;;;;;;9.57;6.25;;;;;24.60;100994.00;;;;5069250;28;20210;-81
2021/07/14 08:58:29;;;;;;;11.18;6.88;;;;;24.60;101000.00;;;;5068557;28;20199;-81
2021/07/14 09:00:59;;;;;;;9.25;6.55;;;;;24.70;100993.00;;;;5069598;28;20206;-80
2021/07/14 09:03:30;;;;;;;10.02;7.43;;;;;24.60;100992.00;;;;5083491;28;20202;-81
2021/07/14 09:05:58;;;;;;;8.52;6.28;;;;;24.70;100994.00;;;;5071206;28;20199;-81
2021/07/14 09:08:25;;;;;;;10.32;6.40;;;;;24.70;100990.00;;;;5073141;28;20195;-81
2021/07/14 09:10:52;;;;;;;9.05;6.03;;;;;24.70;100993.00;;;;5067732;28;20489;-80
2021/07/14 09:13:31;;;;;;;11.07;6.53;;;;;24.70;100997.00;;;;5074329;28;20198;-80
2021/07/14 09:15:59;;;;;;;7.43;6.05;;;;;24.80;100998.00;;;;5078886;28;20216;-80
2021/07/14 09:18:28;;;;;;;6.25;5.50;;;;;24.80;100992.00;;;;5075219;28;20198;-80
2021/07/14 09:20:57;;;;;;;9.15;6.57;;;;;24.80;100998.00;;;;5071541;28;20255;-81
2021/07/14 09:23:26;;;;;;;9.65;7.22;;;;;24.80;100998.00;;;;5075156;28;20214;-80
2021/07/14 09:25:55;;;;;;;9.85;5.95;;;;;24.80;101002.00;;;;5073241;28;20492;-79
2021/07/14 09:28:26;;;;;;;8.57;5.88;;;;;24.80;101004.00;;;;5077299;28;20190;-80
2021/07/14 09:30:58;;;;;;;9.75;7.30;;;;;24.80;101006.00;;;;5069124;28;20223;-81
2021/07/14 09:33:26;;;;;;;9.35;6.55;;;;;24.90;101003.00;;;;5071633;28;20284;-81
2021/07/14 09:35:57;;;;;;;8.88;5.93;;;;;24.90;101007.00;;;;5068163;28;20230;-80
2021/07/14 09:38:26;;;;;;;7.97;5.68;;;;;24.90;101006.00;;;;5067939;28;20256;-80
2021/07/14 09:40:56;;;;;;;7.68;5.82;;;;;24.90;101008.00;;;;5070120;28;20275;-82
2021/07/14 09:43:25;;;;;;;8.57;6.35;;;;;24.90;101001.00;;;;5082216;28;20201;-81
2021/07/14 09:45:53;;;;;;;8.73;6.50;;;;;24.80;101009.00;;;;5087248;28;20202;-80
2021/07/14 09:48:26;;;;;;;8.75;5.80;;;;;24.80;101005.00;;;;5078191;28;20206;-81
2021/07/14 09:50:57;;;;;;;8.75;6.75;;;;;24.80;101002.00;;;;5087744;28;20233;-80
2021/07/14 09:53:27;;;;;;;10.45;6.32;;;;;24.90;101007.00;;;;5082591;28;20565;-81
2021/07/14 09:55:56;;;;;;;8.32;6.03;;;;;24.90;101005.00;;;;5068441;28;20194;-81
2021/07/14 09:58:26;;;;;;;8.25;6.03;;;;;24.90;101002.00;;;;5086806;28;20319;-80
2021/07/14 10:00:56;;;;;;;9.07;6.55;;;;;24.90;101006.00;;;;5083489;28;20206;-81
2021/07/14 10:03:26;;;;;;;7.65;5.80;;;;;24.90;101006.00;;;;5087412;28;20213;-81
2021/07/14 10:06:11;;;;;;;6.72;5.55;;;;;24.80;101001.00;;;;5067536;28;20242;-80
2021/07/14 10:08:40;;;;;;;8.35;6.60;;;;;24.90;101011.00;;;;5068941;28;20207;-80
2021/07/14 10:11:10;;;;;;;9.20;5.97;;;;;24.90;101009.00;;;;5087660;28;20226;-80
2021/07/14 10:13:39;;;;;;;7.25;5.88;;;;;24.90;101009.00;;;;5088204;28;20201;-80
2021/07/14 10:16:07;;;;;;;9.80;6.10;;;;;24.90;101011.00;;;;5078258;28;20194;-81
2021/07/14 10:18:34;;;;;;;7.70;5.30;;;;;24.90;101013.00;;;;5085073;28;20209;-80
2021/07/14 10:21:04;;;;;;;7.50;5.25;;;;;24.90;101022.00;;;;5083234;28;20217;-81
2021/07/14 10:23:33;;;;;;;8.05;5.50;;;;;24.90;101016.00;;;;5067482;28;20203;-82
2021/07/14 10:26:02;;;;;;;6.63;5.22;;;;;24.90;101019.00;;;;5079977;28;20191;-79
2021/07/14 10:28:31;;;;;;;7.28;5.18;;;;;24.90;101020.00;;;;5072378;28;20195;-80
2021/07/14 10:30:58;;;;;;;8.30;5.35;;;;;24.90;101026.00;;;;5094868;28;20550;-85
2021/07/14 10:33:27;;;;;;;8.88;5.70;;;;;24.90;101019.00;;;;5084795;28;20198;-83
2021/07/14 10:35:57;;;;;;;9.30;6.13;;;;;24.90;101014.00;;;;5087860;28;20226;-82
2021/07/14 10:38:27;;;;;;;8.45;5.00;;;;;24.90;101015.00;;;;5079392;28;20218;-83
2021/07/14 10:40:57;;;;;;;7.82;5.72;;;;;24.90;101012.00;;;;5087154;28;20209;-82
2021/07/14 10:43:27;;;;;;;9.27;5.45;;;;;24.90;101008.00;;;;5072956;28;20199;-83
2021/07/14 10:45:54;;;;;;;9.10;5.75;;;;;24.90;101008.00;;;;5067970;28;20599;-82
2021/07/14 10:48:23;;;;;;;9.00;5.45;;;;;24.90;101004.00;;;;5067930;28;20195;-81
2021/07/14 10:50:52;;;;;;;9.23;5.57;;;;;24.90;101017.00;;;;5075570;28;20196;-81
2021/07/14 10:53:20;;;;;;;8.82;5.38;;;;;24.90;101010.00;;;;5071098;28;20202;-78
2021/07/14 10:55:49;;;;;;;8.73;5.88;;;;;24.90;101004.00;;;;5075167;28;20199;-79
2021/07/14 10:58:21;;;;;;;10.02;5.57;;;;;24.90;101018.00;;;;5084259;28;20668;-81
2021/07/14 11:00:48;;;;;;;9.18;5.85;;;;;24.90;101014.00;;;;5073503;28;20199;-82
2021/07/14 11:03:41;;;;;;;8.13;5.60;;;;;24.80;101016.00;;;;5075501;28;20205;-81
2021/07/14 11:06:10;;;;;;;7.90;5.50;;;;;24.90;101021.00;;;;5090810;28;20695;-81
2021/07/14 11:08:39;;;;;;;7.45;5.65;;;;;24.90;101022.00;;;;5088419;28;20241;-81
2021/07/14 11:11:07;;;;;;;8.88;5.05;;;;;24.90;101026.00;;;;5073082;28;20223;-81
2021/07/14 11:13:37;;;;;;;6.95;5.25;;;;;24.90;101017.00;;;;5089092;28;20660;-80
2021/07/14 11:16:30;;;;;;;5.90;4.80;;;;;24.80;101019.00;;;;5085409;28;20214;-80
2021/07/14 11:19:00;;;;;;;6.95;4.95;;;;;24.90;101019.00;;;;5088556;28;20672;-80
2021/07/14 11:21:48;;;;;;;7.25;5.35;;;;;24.80;101018.00;;;;5088969;28;20686;-80
2021/07/14 11:24:51;;;;;;;7.88;4.85;;;;;24.90;101015.00;;;;5081815;28;20284;-80
2021/07/14 11:27:43;;;;;;;10.27;5.75;;;;;24.80;101024.00;;;;5084633;28;20202;-81
2021/07/14 11:30:35;;;;;;;7.68;5.28;;;;;24.90;101018.00;;;;5073257;28;20206;-82
2021/07/14 11:33:03;;;;;;;7.05;5.65;;;;;25.00;101021.00;;;;5073807;28;20218;-81
2021/07/14 11:35:45;;;;;;;8.13;5.45;;;;;24.90;101022.00;;;;5074024;28;20229;-80
2021/07/14 11:38:25;;;;;;;12.40;5.75;;;;;24.90;101018.00;;;;5082853;28;20736;-81
2021/07/14 11:40:54;;;;;;;8.30;5.25;;;;;25.00;101021.00;;;;5074172;28;20210;-81
2021/07/14 11:43:41;;;;;;;7.95;5.53;;;;;24.90;101026.00;;;;5081177;28;20220;-81
2021/07/14 11:46:12;;;;;;;8.00;5.03;;;;;25.10;101016.00;;;;5074900;28;20213;-81
2021/07/14 11:48:42;;;;;;;7.57;5.80;;;;;25.10;101012.00;;;;5075748;28;20194;-82
2021/07/14 11:51:20;;;;;;;6.90;5.68;;;;;25.10;101018.00;;;;5084177;28;20203;-80
2021/07/14 11:53:49;;;;;;;8.23;4.97;;;;;25.10;101011.00;;;;5082924;28;20817;-81
2021/07/14 11:56:23;;;;;;;8.63;5.80;;;;;25.10;101010.00;;;;5070157;28;20199;-81
2021/07/14 11:58:59;;;;;;;7.00;5.63;;;;;25.10;101013.00;;;;5080331;28;20206;-82
2021/07/14 12:02:17;;;;;;;7.18;5.05;;;;;25.10;101014.00;;;;5089964;28;20190;-81
2021/07/14 12:05:06;;;;;;;6.55;5.07;;;;;25.10;101019.00;;;;5075311;28;20194;-79
2021/07/14 12:07:41;;;;;;;6.32;4.57;;;;;25.30;101010.00;;;;5072267;28;20248;-79
2021/07/14 12:10:17;;;;;;;11.35;5.43;;;;;25.30;101013.00;;;;5071436;28;20194;-79
2021/07/14 12:12:48;;;;;;;7.70;4.72;;;;;25.40;101009.00;;;;5069599;28;20254;-79
2021/07/14 12:15:15;;;;;;;5.82;4.60;;;;;25.50;101013.00;;;;5073899;28;20229;-80
2021/07/14 12:17:44;;;;;;;6.90;4.70;;;;;25.50;101013.00;;;;5090049;28;20206;-80
2021/07/14 12:20:15;;;;;;;7.65;5.53;;;;;25.60;101014.00;;;;5078522;28;20589;-78
2021/07/14 12:22:42;;;;;;;7.55;5.15;;;;;25.60;100998.00;;;;5089052;28;20202;-80
2021/07/14 12:25:13;;;;;;;5.57;4.15;;;;;25.60;100997.00;;;;5080671;28;20213;-80